createdAt,value
2023-02-22T00:02:10.683Z,12.03
2023-02-22T00:04:41.006Z,9.67
2023-02-22T00:07:09.131Z,10.23
2023-02-22T00:09:38.260Z,15.70
2023-02-22T00:12:12.436Z,12.80
2023-02-22T00:14:40.328Z,12.67
2023-02-22T00:17:07.012Z,11.90
2023-02-22T00:19:34.119Z,12.03
2023-02-22T00:22:00.722Z,10.80
2023-02-22T00:24:29.357Z,10.33
2023-02-22T00:26:56.058Z,9.40
2023-02-22T00:29:24.279Z,8.83
2023-02-22T00:31:51.073Z,9.57
2023-02-22T00:34:17.899Z,9.97
2023-02-22T00:36:48.314Z,9.30
2023-02-22T00:39:15.504Z,9.20
2023-02-22T00:41:42.251Z,9.00
2023-02-22T00:44:08.924Z,7.13
2023-02-22T00:46:35.538Z,8.80
2023-02-22T00:49:05.340Z,8.60
2023-02-22T00:51:33.845Z,8.30
2023-02-22T00:54:00.643Z,8.93
2023-02-22T00:56:27.273Z,10.03
2023-02-22T00:58:54.748Z,10.80
2023-02-22T01:01:22.859Z,10.77
2023-02-22T01:03:49.744Z,10.27
2023-02-22T01:06:16.609Z,9.07
2023-02-22T01:08:47.418Z,9.43
2023-02-22T01:11:15.804Z,9.37
2023-02-22T01:13:42.708Z,11.60
2023-02-22T01:16:09.420Z,11.63
2023-02-22T01:18:36.099Z,12.40
2023-02-22T01:21:06.206Z,14.20
2023-02-22T01:23:36.169Z,15.30
2023-02-22T01:26:05.969Z,13.27
2023-02-22T01:28:33.762Z,13.00
2023-02-22T01:31:02.922Z,12.17
2023-02-22T01:33:30.232Z,13.20
2023-02-22T01:35:56.904Z,13.43
2023-02-22T01:38:23.652Z,13.77
2023-02-22T01:40:51.256Z,12.60
2023-02-22T01:43:24.831Z,12.77
2023-02-22T01:45:56.789Z,13.50
2023-02-22T01:48:37.246Z,12.90
2023-02-22T01:51:10.845Z,13.33
2023-02-22T01:54:15.411Z,14.43
2023-02-22T01:56:50.489Z,13.30
2023-02-22T01:59:19.116Z,13.17
2023-02-22T02:01:47.526Z,13.70
2023-02-22T02:04:25.467Z,13.37
2023-02-22T02:06:58.438Z,13.60
2023-02-22T02:09:40.066Z,13.90
2023-02-22T02:12:09.038Z,13.10
2023-02-22T02:14:40.434Z,14.10
2023-02-22T02:17:09.796Z,14.33
2023-02-22T02:19:51.960Z,14.75
2023-02-22T02:22:44.229Z,14.13
2023-02-22T02:25:37.978Z,15.77
2023-02-22T02:28:26.578Z,16.00
2023-02-22T02:31:05.336Z,15.60
2023-02-22T02:33:35.078Z,16.27
2023-02-22T02:36:18.284Z,15.90
2023-02-22T02:38:58.515Z,14.73
2023-02-22T02:41:28.191Z,17.07
2023-02-22T02:44:00.656Z,15.47
2023-02-22T02:46:48.777Z,15.90
2023-02-22T02:49:19.578Z,15.70
2023-02-22T02:51:49.094Z,15.30
2023-02-22T02:54:16.020Z,16.00
2023-02-22T02:56:43.641Z,14.67
2023-02-22T02:59:26.238Z,14.93
2023-02-22T03:02:14.868Z,15.13
2023-02-22T03:05:12.919Z,14.67
2023-02-22T03:07:49.293Z,14.50
2023-02-22T03:10:18.842Z,13.87
2023-02-22T03:13:03.053Z,14.63
2023-02-22T03:15:49.713Z,14.70
2023-02-22T03:18:33.195Z,13.40
2023-02-22T03:21:20.037Z,13.80
2023-02-22T03:24:08.505Z,13.93
2023-02-22T03:26:43.756Z,14.27
2023-02-22T03:29:12.432Z,16.53
2023-02-22T03:31:43.113Z,15.10
2023-02-22T03:34:19.855Z,15.90
2023-02-22T03:36:50.890Z,16.77
2023-02-22T03:39:20.352Z,14.50
2023-02-22T03:41:51.505Z,14.53
2023-02-22T03:44:24.651Z,14.07
2023-02-22T03:46:54.081Z,14.93
2023-02-22T03:49:37.456Z,14.50
2023-02-22T03:52:09.641Z,14.60
2023-02-22T03:54:38.234Z,14.80
2023-02-22T03:57:12.762Z,15.80
2023-02-22T03:59:42.323Z,16.00
2023-02-22T04:02:08.950Z,16.00
2023-02-22T04:04:35.717Z,16.93
2023-02-22T04:07:06.827Z,16.23
2023-02-22T04:09:33.568Z,15.50
2023-02-22T04:12:01.657Z,16.40
2023-02-22T04:14:30.683Z,15.70
2023-02-22T04:16:58.300Z,15.60
2023-02-22T04:19:25.052Z,16.90
2023-02-22T04:21:52.280Z,16.47
2023-02-22T04:24:22.589Z,16.37
2023-02-22T04:26:49.950Z,16.20
2023-02-22T04:29:17.063Z,17.33
2023-02-22T04:31:45.005Z,18.00
2023-02-22T04:34:11.892Z,18.07
2023-02-22T04:36:42.343Z,16.90
2023-02-22T04:39:09.204Z,17.80
2023-02-22T04:41:36.034Z,17.30
2023-02-22T04:44:03.171Z,17.90
2023-02-22T04:46:31.534Z,17.57
2023-02-22T04:48:58.272Z,17.13
2023-02-22T04:51:27.857Z,18.93
2023-02-22T04:53:59.134Z,18.40
2023-02-22T04:56:25.960Z,17.67
2023-02-22T04:58:52.730Z,17.27
2023-02-22T05:01:19.493Z,18.40
2023-02-22T05:03:46.973Z,17.80
2023-02-22T05:06:13.666Z,17.83
2023-02-22T05:08:40.411Z,17.23
2023-02-22T05:11:07.112Z,18.30
2023-02-22T05:13:33.811Z,17.00
2023-02-22T05:16:00.497Z,17.20
2023-02-22T05:18:27.274Z,18.03
2023-02-22T05:20:53.960Z,18.33
2023-02-22T05:23:20.590Z,18.40
2023-02-22T05:25:50.607Z,17.00
2023-02-22T05:28:17.324Z,16.50
2023-02-22T05:30:44.119Z,19.33
2023-02-22T05:33:11.110Z,17.20
2023-02-22T05:35:37.837Z,18.33
2023-02-22T05:38:05.402Z,18.17
2023-02-22T05:40:32.696Z,17.63
2023-02-22T05:43:05.042Z,19.53
2023-02-22T05:45:31.855Z,17.57
2023-02-22T05:47:58.769Z,19.10
2023-02-22T05:50:35.336Z,17.77
2023-02-22T05:53:02.654Z,18.20
2023-02-22T05:55:29.387Z,19.87
2023-02-22T05:57:56.111Z,18.27
2023-02-22T06:00:28.516Z,18.20
2023-02-22T06:03:06.186Z,18.20
2023-02-22T06:05:35.043Z,17.90
2023-02-22T06:08:02.350Z,18.50
2023-02-22T06:10:30.611Z,18.50
2023-02-22T06:12:57.765Z,16.53
2023-02-22T06:15:27.713Z,19.00
2023-02-22T06:17:55.814Z,19.83
2023-02-22T06:20:24.264Z,18.50
2023-02-22T06:22:52.371Z,19.10
2023-02-22T06:25:24.021Z,18.13
2023-02-22T06:27:50.698Z,19.37
2023-02-22T06:30:19.676Z,19.40
2023-02-22T06:32:46.449Z,18.40
2023-02-22T06:35:16.809Z,17.10
2023-02-22T06:37:43.481Z,18.80
2023-02-22T06:40:11.279Z,20.73
2023-02-22T06:42:38.977Z,19.20
2023-02-22T06:45:08.301Z,19.97
2023-02-22T06:47:39.473Z,19.80
2023-02-22T06:50:06.423Z,20.83
2023-02-22T06:52:39.201Z,19.67
2023-02-22T06:55:06.122Z,20.97
2023-02-22T06:57:32.775Z,18.93
2023-02-22T06:59:59.350Z,20.33
2023-02-22T07:02:26.080Z,19.10
2023-02-22T07:04:52.705Z,19.50
2023-02-22T07:07:23.698Z,19.03
2023-02-22T07:09:50.309Z,18.60
2023-02-22T07:12:17.129Z,20.27
2023-02-22T07:14:43.808Z,19.20
2023-02-22T07:17:15.647Z,19.47
2023-02-22T07:19:42.312Z,20.20
2023-02-22T07:22:11.408Z,20.53
2023-02-22T07:24:44.003Z,20.77
2023-02-22T07:27:10.649Z,21.53
2023-02-22T07:29:38.343Z,19.80
2023-02-22T07:32:07.347Z,20.60
2023-02-22T07:34:34.120Z,20.70
2023-02-22T07:37:03.003Z,19.30
2023-02-22T07:39:29.883Z,19.10
2023-02-22T07:41:56.665Z,20.07
2023-02-22T07:44:24.031Z,19.73
2023-02-22T07:46:50.793Z,20.47
2023-02-22T07:49:17.632Z,19.70
2023-02-22T07:51:51.511Z,19.07
2023-02-22T07:54:18.269Z,18.50
2023-02-22T07:56:46.535Z,18.20
2023-02-22T07:59:13.390Z,19.63
2023-02-22T08:01:40.241Z,20.47
2023-02-22T08:04:07.284Z,19.73
2023-02-22T08:06:34.117Z,19.30
2023-02-22T08:09:00.795Z,19.33
2023-02-22T08:11:27.496Z,19.60
2023-02-22T08:13:54.108Z,19.43
2023-02-22T08:16:20.785Z,19.40
2023-02-22T08:18:49.053Z,18.67
2023-02-22T08:21:16.738Z,20.20
2023-02-22T08:23:43.559Z,19.30
2023-02-22T08:26:15.608Z,19.00
2023-02-22T08:28:43.169Z,20.00
2023-02-22T08:31:09.857Z,19.07
2023-02-22T08:33:36.581Z,20.03
2023-02-22T08:36:03.509Z,18.90
2023-02-22T08:38:31.184Z,20.17
2023-02-22T08:40:58.111Z,20.73
2023-02-22T08:43:24.939Z,20.90
2023-02-22T08:45:52.263Z,19.40
2023-02-22T08:48:19.888Z,19.27
2023-02-22T08:50:46.758Z,18.63
2023-02-22T08:53:14.367Z,19.73
2023-02-22T08:55:41.801Z,19.00
2023-02-22T08:58:12.074Z,18.03
2023-02-22T09:00:40.093Z,18.90
2023-02-22T09:03:09.957Z,20.33
2023-02-22T09:05:36.699Z,19.13
2023-02-22T09:08:06.084Z,18.83
2023-02-22T09:10:33.992Z,20.40
2023-02-22T09:13:01.280Z,20.73
2023-02-22T09:15:30.123Z,20.30
2023-02-22T09:17:56.874Z,18.70
2023-02-22T09:20:24.448Z,19.93
2023-02-22T09:22:51.041Z,19.90
2023-02-22T09:25:20.633Z,19.13
2023-02-22T09:27:48.901Z,19.10
2023-02-22T09:30:23.997Z,19.60
2023-02-22T09:32:56.199Z,19.20
2023-02-22T09:35:27.566Z,20.50
2023-02-22T09:38:06.157Z,19.70
2023-02-22T09:40:41.139Z,19.20
2023-02-22T09:43:19.434Z,18.90
2023-02-22T09:46:02.597Z,18.97
2023-02-22T09:48:31.913Z,18.20
2023-02-22T09:50:59.793Z,18.10
2023-02-22T09:53:41.715Z,19.20
2023-02-22T09:56:14.941Z,19.33
2023-02-22T09:58:47.587Z,18.97
2023-02-22T10:01:22.916Z,19.23
2023-02-22T10:04:10.563Z,17.77
2023-02-22T10:06:37.925Z,18.97
2023-02-22T10:09:08.050Z,18.17
2023-02-22T10:11:57.102Z,16.83
2023-02-22T10:14:33.444Z,18.27
2023-02-22T10:17:12.796Z,18.77
2023-02-22T10:20:07.399Z,18.70
2023-02-22T10:23:00.187Z,19.30
2023-02-22T10:25:34.995Z,19.60
2023-02-22T10:28:10.680Z,18.20
2023-02-22T10:31:00.733Z,18.40
2023-02-22T10:33:31.776Z,19.37
2023-02-22T10:35:58.807Z,18.20
2023-02-22T10:38:44.206Z,19.20
2023-02-22T10:41:10.842Z,18.63
2023-02-22T10:43:37.973Z,19.13
2023-02-22T10:46:07.092Z,19.20
2023-02-22T10:48:37.696Z,18.63
2023-02-22T10:51:06.670Z,18.40
2023-02-22T10:53:36.320Z,17.13
2023-02-22T10:56:18.929Z,17.83
2023-02-22T10:58:49.745Z,16.73
2023-02-22T11:01:27.770Z,17.07
2023-02-22T11:04:15.106Z,16.80
2023-02-22T11:06:45.162Z,16.37
2023-02-22T11:09:18.133Z,15.90
2023-02-22T11:11:47.443Z,16.07
2023-02-22T11:14:28.089Z,16.87
2023-02-22T11:16:56.808Z,15.77
2023-02-22T11:19:31.619Z,16.53
2023-02-22T11:22:10.274Z,15.17
2023-02-22T11:24:59.625Z,15.10
2023-02-22T11:27:38.621Z,14.63
2023-02-22T11:30:10.845Z,15.63
2023-02-22T11:32:46.787Z,15.10
2023-02-22T11:35:26.729Z,15.93
2023-02-22T11:37:53.555Z,14.83
2023-02-22T11:40:22.648Z,14.47
2023-02-22T11:43:11.062Z,15.80
2023-02-22T11:45:44.234Z,15.50
2023-02-22T11:48:21.233Z,15.20
2023-02-22T11:51:14.099Z,15.00
2023-02-22T11:54:19.468Z,14.40
2023-02-22T11:56:49.308Z,15.77
2023-02-22T11:59:40.845Z,14.80
2023-02-22T12:02:51.958Z,14.87
2023-02-22T12:05:37.340Z,13.83
2023-02-22T12:08:20.256Z,14.23
2023-02-22T12:11:06.425Z,13.80
2023-02-22T12:13:58.834Z,13.33
2023-02-22T12:16:59.377Z,12.40
2023-02-22T12:19:45.403Z,13.40
2023-02-22T12:22:22.734Z,12.27
2023-02-22T12:25:08.987Z,12.10
2023-02-22T12:27:44.436Z,11.37
2023-02-22T12:30:16.372Z,12.70
2023-02-22T12:32:48.006Z,12.13
2023-02-22T12:35:26.810Z,12.50
2023-02-22T12:38:12.391Z,11.40
2023-02-22T12:40:48.338Z,10.70
2023-02-22T12:43:20.745Z,10.00
2023-02-22T12:46:10.963Z,11.10
2023-02-22T12:48:54.284Z,10.50
2023-02-22T12:51:29.410Z,10.47
2023-02-22T12:54:02.363Z,11.07
2023-02-22T12:56:35.203Z,11.10
2023-02-22T12:59:38.121Z,11.20
2023-02-22T13:02:10.797Z,10.30
2023-02-22T13:04:37.642Z,10.43
2023-02-22T13:07:13.088Z,10.50
2023-02-22T13:09:57.144Z,10.40
2023-02-22T13:12:45.213Z,9.93
2023-02-22T13:15:23.903Z,11.20
2023-02-22T13:18:01.635Z,9.50
2023-02-22T13:20:36.412Z,9.30
2023-02-22T13:23:12.734Z,9.20
2023-02-22T13:25:55.248Z,8.80
2023-02-22T13:28:49.141Z,9.20
2023-02-22T13:31:58.004Z,10.17
2023-02-22T13:34:43.488Z,8.40
2023-02-22T13:37:35.860Z,10.13
2023-02-22T13:40:30.771Z,9.80
2023-02-22T13:43:17.454Z,8.97
2023-02-22T13:46:13.475Z,8.77
2023-02-22T13:48:55.356Z,9.50
2023-02-22T13:51:36.773Z,9.10
2023-02-22T13:54:12.508Z,9.10
2023-02-22T13:56:42.993Z,8.67
2023-02-22T13:59:33.833Z,8.40
2023-02-22T14:02:04.452Z,8.00
2023-02-22T14:04:31.048Z,8.23
2023-02-22T14:07:00.722Z,8.43
2023-02-22T14:09:53.132Z,8.13
2023-02-22T14:12:34.938Z,7.90
2023-02-22T14:15:28.759Z,8.23
2023-02-22T14:18:02.184Z,8.00
2023-02-22T14:20:36.951Z,7.27
2023-02-22T14:23:40.352Z,8.30
2023-02-22T14:26:27.545Z,7.70
2023-02-22T14:29:03.243Z,8.00
2023-02-22T14:31:37.611Z,8.13
2023-02-22T14:34:04.628Z,8.57
2023-02-22T14:36:54.857Z,8.40
2023-02-22T14:39:43.507Z,7.77
2023-02-22T14:42:17.652Z,6.90
2023-02-22T14:44:53.602Z,7.37
2023-02-22T14:48:01.261Z,8.07
2023-02-22T14:50:40.388Z,6.90
2023-02-22T14:53:13.373Z,7.70
2023-02-22T14:55:46.850Z,7.07
2023-02-22T14:58:25.673Z,6.43
2023-02-22T15:00:53.863Z,7.13
2023-02-22T15:03:37.423Z,6.17
2023-02-22T15:06:14.912Z,7.20
2023-02-22T15:08:43.512Z,7.90
2023-02-22T15:11:23.632Z,7.40
2023-02-22T15:13:52.905Z,6.70
2023-02-22T15:16:23.910Z,7.33
2023-02-22T15:18:54.177Z,6.80
2023-02-22T15:21:23.938Z,6.40
2023-02-22T15:23:58.489Z,6.53
2023-02-22T15:26:51.949Z,7.60
2023-02-22T15:29:31.721Z,6.70
2023-02-22T15:32:00.519Z,7.10
2023-02-22T15:34:31.898Z,7.50
2023-02-22T15:37:19.968Z,7.43
2023-02-22T15:39:46.803Z,7.47
2023-02-22T15:42:20.775Z,7.37
2023-02-22T15:44:49.262Z,7.20
2023-02-22T15:47:27.728Z,7.60
2023-02-22T15:50:15.354Z,7.20
2023-02-22T15:53:10.456Z,7.13
2023-02-22T15:55:37.907Z,7.80
2023-02-22T15:58:11.367Z,8.00
2023-02-22T16:00:41.447Z,7.90
2023-02-22T16:03:10.943Z,8.40
2023-02-22T16:05:57.859Z,7.67
2023-02-22T16:08:29.419Z,7.83
2023-02-22T16:11:13.037Z,7.80
2023-02-22T16:13:41.603Z,7.67
2023-02-22T16:16:29.749Z,8.03
2023-02-22T16:19:22.296Z,5.70
2023-02-22T16:22:03.525Z,6.77
2023-02-22T16:24:35.566Z,5.70
2023-02-22T16:27:04.566Z,6.20
2023-02-22T16:29:31.445Z,6.50
2023-02-22T16:31:58.251Z,5.80
2023-02-22T16:34:24.962Z,6.00
2023-02-22T16:36:53.841Z,6.47
2023-02-22T16:39:24.964Z,6.23
2023-02-22T16:41:52.080Z,6.73
2023-02-22T16:44:20.919Z,6.10
2023-02-22T16:46:47.635Z,5.40
2023-02-22T16:49:14.890Z,6.40
2023-02-22T16:51:48.041Z,6.43
2023-02-22T16:54:21.555Z,6.50
2023-02-22T16:56:48.199Z,6.40
2023-02-22T16:59:15.490Z,5.97
2023-02-22T17:01:42.581Z,6.67
2023-02-22T17:04:29.121Z,6.83
2023-02-22T17:06:59.195Z,6.80
2023-02-22T17:09:26.422Z,6.57
2023-02-22T17:11:53.264Z,6.47
2023-02-22T17:14:23.237Z,6.00
2023-02-22T17:16:50.957Z,5.73
2023-02-22T17:19:25.872Z,6.63
2023-02-22T17:21:59.651Z,6.97
2023-02-22T17:24:29.415Z,5.97
2023-02-22T17:26:57.493Z,6.60
2023-02-22T17:32:27.385Z,6.97
2023-02-22T17:34:54.121Z,7.07
2023-02-22T17:37:20.819Z,8.50
2023-02-22T17:39:49.744Z,6.80
2023-02-22T17:42:16.448Z,6.63
2023-02-22T17:44:50.219Z,6.50
2023-02-22T17:47:20.065Z,6.17
2023-02-22T17:49:46.839Z,7.53
2023-02-22T17:52:21.098Z,6.10
2023-02-22T17:54:51.384Z,5.87
2023-02-22T17:57:18.551Z,5.70
2023-02-22T17:59:48.475Z,6.10
2023-02-22T18:02:24.215Z,5.90
2023-02-22T18:04:51.029Z,6.43
2023-02-22T18:07:19.988Z,6.37
2023-02-22T18:10:16.266Z,6.87
2023-02-22T18:12:43.323Z,6.77
2023-02-22T18:15:17.312Z,6.53
2023-02-22T18:17:46.188Z,6.40
2023-02-22T18:20:14.087Z,6.23
2023-02-22T18:22:43.238Z,6.33
2023-02-22T18:25:11.292Z,6.87
2023-02-22T18:27:38.221Z,6.43
2023-02-22T18:30:06.899Z,7.27
2023-02-22T18:32:33.719Z,6.67
2023-02-22T18:35:00.507Z,7.20
2023-02-22T18:37:30.546Z,6.60
2023-02-22T18:39:57.992Z,6.87
2023-02-22T18:42:26.263Z,7.10
2023-02-22T18:44:54.491Z,6.37
2023-02-22T18:47:23.002Z,6.30
2023-02-22T18:49:49.777Z,6.30
2023-02-22T18:52:16.449Z,6.50
2023-02-22T18:54:47.272Z,7.00
2023-02-22T18:57:17.026Z,7.43
2023-02-22T18:59:46.050Z,6.33
2023-02-22T19:02:15.028Z,6.40
2023-02-22T19:04:46.827Z,6.50
2023-02-22T19:07:18.324Z,6.80
2023-02-22T19:09:58.563Z,6.80
2023-02-22T19:12:27.107Z,7.30
2023-02-22T19:14:53.834Z,7.40
2023-02-22T19:17:21.596Z,7.30
2023-02-22T19:19:57.163Z,6.70
2023-02-22T19:22:26.300Z,7.70
2023-02-22T19:24:58.715Z,7.33
2023-02-22T19:27:27.529Z,7.63
2023-02-22T19:29:54.248Z,8.47
2023-02-22T19:32:21.901Z,7.00
2023-02-22T19:34:52.889Z,7.30
2023-02-22T19:37:22.682Z,6.97
2023-02-22T19:39:49.378Z,6.67
2023-02-22T19:42:16.126Z,7.17
2023-02-22T19:44:51.595Z,7.23
2023-02-22T19:47:18.306Z,6.87
2023-02-22T19:49:49.613Z,7.33
2023-02-22T19:52:19.730Z,7.50
2023-02-22T19:54:46.493Z,7.40
2023-02-22T19:57:16.296Z,7.20
2023-02-22T19:59:44.503Z,7.63
2023-02-22T20:02:16.084Z,7.63
2023-02-22T20:04:50.158Z,7.47
2023-02-22T20:07:23.019Z,6.70
2023-02-22T20:09:49.851Z,8.07
2023-02-22T20:12:16.592Z,8.40
2023-02-22T20:14:46.383Z,8.47
2023-02-22T20:17:15.638Z,7.50
2023-02-22T20:19:45.394Z,7.03
2023-02-22T20:22:14.875Z,6.70
2023-02-22T20:24:59.431Z,6.60
2023-02-22T20:27:26.264Z,6.87
2023-02-22T20:29:56.318Z,6.63
2023-02-22T20:32:24.649Z,7.10
2023-02-22T20:34:51.856Z,6.80
2023-02-22T20:37:19.068Z,7.20
2023-02-22T20:39:54.823Z,7.30
2023-02-22T20:42:21.740Z,7.80
2023-02-22T20:44:53.463Z,6.93
2023-02-22T20:47:45.370Z,7.70
2023-02-22T20:50:13.247Z,7.70
2023-02-22T20:52:56.211Z,8.40
2023-02-22T20:55:25.826Z,7.27
2023-02-22T20:58:01.194Z,7.90
2023-02-22T21:00:27.996Z,8.07
2023-02-22T21:02:55.705Z,8.10
2023-02-22T21:05:28.122Z,8.10
2023-02-22T21:07:58.579Z,8.27
2023-02-22T21:10:25.433Z,8.83
2023-02-22T21:12:52.387Z,8.33
2023-02-22T21:15:19.209Z,8.70
2023-02-22T21:17:49.058Z,8.67
2023-02-22T21:20:17.492Z,8.63
2023-02-22T21:22:45.203Z,8.57
2023-02-22T21:25:19.536Z,10.17
2023-02-22T21:27:47.102Z,8.70
2023-02-22T21:30:15.128Z,9.10
2023-02-22T21:32:42.014Z,8.87
2023-02-22T21:35:08.996Z,9.00
2023-02-22T21:37:38.863Z,9.40
2023-02-22T21:40:12.127Z,8.70
2023-02-22T21:42:38.758Z,9.43
2023-02-22T21:45:08.314Z,9.53
2023-02-22T21:47:35.865Z,10.30
2023-02-22T21:50:02.520Z,10.17
2023-02-22T21:52:29.149Z,9.90
2023-02-22T21:54:55.818Z,10.70
2023-02-22T21:57:26.251Z,10.03
2023-02-22T21:59:53.275Z,9.37
2023-02-22T22:02:22.111Z,11.13
2023-02-22T22:04:57.620Z,9.90
2023-02-22T22:07:24.356Z,10.53
2023-02-22T22:09:56.747Z,11.40
2023-02-22T22:12:39.237Z,10.93
2023-02-22T22:15:08.746Z,11.00
2023-02-22T22:17:35.795Z,12.83
2023-02-22T22:20:05.449Z,12.60
2023-02-22T22:22:32.267Z,12.57
2023-02-22T22:24:59.095Z,13.40
2023-02-22T22:27:33.372Z,12.33
2023-02-22T22:30:01.886Z,14.47
2023-02-22T22:32:29.701Z,13.00
2023-02-22T22:35:01.853Z,12.90
2023-02-22T22:37:29.124Z,14.40
2023-02-22T22:39:56.018Z,14.40
2023-02-22T22:42:25.455Z,14.17
2023-02-22T22:44:59.747Z,14.03
2023-02-22T22:47:26.509Z,15.00
2023-02-22T22:49:58.921Z,16.03
2023-02-22T22:52:31.259Z,15.53
2023-02-22T22:55:00.630Z,17.10
2023-02-22T22:57:35.040Z,16.97
2023-02-22T23:00:21.698Z,17.57
2023-02-22T23:02:48.771Z,15.60
2023-02-22T23:05:17.379Z,16.13
2023-02-22T23:07:48.262Z,15.53
2023-02-22T23:10:15.009Z,16.47
2023-02-22T23:12:41.668Z,15.80
2023-02-22T23:15:08.852Z,15.83
2023-02-22T23:17:42.476Z,14.50
2023-02-22T23:20:13.512Z,16.50
2023-02-22T23:22:40.770Z,16.13
2023-02-22T23:25:08.248Z,15.87
2023-02-22T23:27:38.332Z,16.37
2023-02-22T23:30:06.577Z,16.07
2023-02-22T23:32:35.048Z,16.47
2023-02-22T23:35:06.197Z,16.50
2023-02-22T23:37:35.618Z,17.83
2023-02-22T23:40:02.504Z,17.07
2023-02-22T23:42:29.201Z,16.30
2023-02-22T23:44:57.231Z,17.50
2023-02-22T23:47:31.708Z,17.10
2023-02-22T23:49:59.105Z,18.43
2023-02-22T23:52:30.208Z,18.43
2023-02-22T23:54:58.324Z,19.90
2023-02-22T23:57:26.108Z,20.63
2023-02-22T23:59:52.960Z,21.40
